Time;durP1;ratioP1;P1;durP2;ratioP2;P2;SDS_P1;SDS_P2;PMS_P1;PMS_P2;Temp;Humidity;BMP_temperature;BMP_pressure;BME280_temperature;BME280_humidity;BME280_pressure;Samples;Min_cycle;Max_cycle;Signal;HPM_P1;HPM_P2
2022/09/24 00:00:43;;;;;;;18.83;12.82;;;12.00;24.00;;;;;;7367021;19;20506;-68
2022/09/24 00:03:13;;;;;;;19.10;12.88;;;12.00;23.40;;;;;;7366331;19;20007;-68
2022/09/24 00:05:43;;;;;;;19.00;13.18;;;12.10;23.50;;;;;;7364601;19;20442;-68
2022/09/24 00:08:14;;;;;;;18.38;12.90;;;12.10;23.50;;;;;;7366303;19;20015;-67
2022/09/24 00:10:45;;;;;;;18.08;11.80;;;12.10;23.50;;;;;;7367360;19;20015;-68
2022/09/24 00:13:18;;;;;;;15.48;11.73;;;12.10;23.40;;;;;;7389705;19;20494;-68
2022/09/24 00:15:52;;;;;;;13.88;10.98;;;12.10;22.60;;;;;;7365489;19;20010;-68
2022/09/24 00:18:22;;;;;;;14.90;11.38;;;12.10;23.00;;;;;;7364711;19;20013;-68
2022/09/24 00:20:52;;;;;;;14.38;11.82;;;12.10;23.30;;;;;;7370222;19;20014;-68
2022/09/24 00:23:22;;;;;;;14.18;11.90;;;12.20;22.70;;;;;;7375461;19;20006;-69
2022/09/24 00:28:35;;;;;;;13.63;11.10;;;12.20;23.00;;;;;;7387176;19;20014;-68
2022/09/24 00:31:09;;;;;;;15.77;11.07;;;12.20;22.20;;;;;;7395524;19;20380;-68
2022/09/24 00:33:39;;;;;;;15.27;11.00;;;12.20;21.60;;;;;;7373888;19;20013;-68
2022/09/24 00:36:08;;;;;;;15.60;11.23;;;12.20;21.30;;;;;;7371441;19;20506;-68
2022/09/24 00:38:38;;;;;;;15.48;12.27;;;12.30;20.90;;;;;;7373148;19;20018;-68
2022/09/24 00:41:08;;;;;;;13.57;10.80;;;12.30;20.80;;;;;;7373507;19;20025;-68
2022/09/24 00:43:39;;;;;;;16.33;11.85;;;12.20;21.10;;;;;;7374794;19;20017;-68
2022/09/24 00:46:17;;;;;;;15.88;11.07;;;12.20;20.80;;;;;;7393395;19;20470;-68
2022/09/24 00:48:49;;;;;;;15.20;12.45;;;12.30;20.80;;;;;;7373527;19;20010;-68
2022/09/24 00:51:21;;;;;;;14.70;12.18;;;12.30;20.80;;;;;;7373081;19;20017;-68
2022/09/24 00:53:54;;;;;;;19.98;12.85;;;12.30;20.90;;;;;;7373648;19;20038;-68
2022/09/24 00:56:25;;;;;;;16.05;12.90;;;12.30;21.00;;;;;;7370209;19;20014;-68
2022/09/24 00:58:57;;;;;;;14.70;12.85;;;12.30;21.00;;;;;;7370962;19;20010;-67
2022/09/24 01:01:30;;;;;;;18.00;14.18;;;12.30;20.80;;;;;;7395188;19;20355;-68
2022/09/24 01:04:01;;;;;;;16.02;13.52;;;12.30;20.90;;;;;;7373544;19;20495;-67
2022/09/24 01:06:31;;;;;;;18.73;13.50;;;12.30;21.00;;;;;;7369392;19;20021;-68
2022/09/24 01:09:02;;;;;;;21.05;13.40;;;12.30;21.40;;;;;;7373673;19;20010;-68
2022/09/24 01:11:43;;;;;;;16.33;14.18;;;12.30;21.20;;;;;;7373317;19;20014;-68
2022/09/24 01:14:45;;;;;;;19.67;14.57;;;12.30;21.00;;;;;;7373454;19;20699;-69
2022/09/24 01:17:26;;;;;;;16.17;13.15;;;12.30;20.90;;;;;;7370740;19;20014;-68
2022/09/24 01:20:26;;;;;;;15.85;13.57;;;12.20;21.70;;;;;;7372896;19;20027;-68
2022/09/24 01:23:22;;;;;;;18.08;13.70;;;12.20;21.30;;;;;;7372205;19;20020;-68
2022/09/24 01:26:08;;;;;;;18.40;13.50;;;12.20;22.10;;;;;;7370036;19;20021;-68
2022/09/24 01:28:53;;;;;;;18.55;12.95;;;12.20;21.90;;;;;;7371620;19;20018;-70
2022/09/24 01:31:31;;;;;;;16.40;13.05;;;12.20;22.60;;;;;;7393936;19;20034;-68
2022/09/24 01:34:04;;;;;;;17.80;13.32;;;12.20;22.50;;;;;;7372004;19;20014;-68
2022/09/24 01:36:37;;;;;;;19.73;13.73;;;12.20;22.40;;;;;;7368572;19;20018;-68
2022/09/24 01:39:09;;;;;;;15.80;13.57;;;12.20;22.10;;;;;;7372277;19;20363;-69
2022/09/24 01:41:41;;;;;;;17.30;13.88;;;12.20;23.00;;;;;;7371914;19;20022;-68
2022/09/24 01:44:14;;;;;;;16.77;14.40;;;12.10;22.50;;;;;;7372355;19;20291;-68
2022/09/24 01:46:47;;;;;;;17.50;15.15;;;12.10;23.40;;;;;;7368895;19;20018;-68
2022/09/24 01:49:17;;;;;;;18.33;14.15;;;12.10;23.50;;;;;;7393518;19;20002;-68
2022/09/24 01:51:52;;;;;;;19.48;15.23;;;12.00;23.40;;;;;;7371373;19;20037;-68
2022/09/24 01:54:28;;;;;;;16.75;15.02;;;12.00;23.40;;;;;;7370119;19;20478;-68
2022/09/24 01:57:04;;;;;;;18.45;15.57;;;11.90;23.40;;;;;;7368583;19;20015;-69
2022/09/24 01:59:39;;;;;;;18.58;15.25;;;11.90;23.80;;;;;;7369985;19;20021;-67
2022/09/24 02:02:17;;;;;;;18.55;15.35;;;11.80;24.50;;;;;;7371398;19;20541;-67
2022/09/24 02:04:53;;;;;;;19.77;14.80;;;11.90;24.90;;;;;;7370700;19;20011;-68
2022/09/24 02:07:28;;;;;;;17.08;15.15;;;11.80;25.10;;;;;;7390326;19;20022;-68
2022/09/24 02:09:58;;;;;;;17.92;15.48;;;11.70;25.70;;;;;;7370837;19;20017;-69
2022/09/24 02:12:33;;;;;;;17.75;15.00;;;11.70;26.20;;;;;;7370797;19;20038;-66
2022/09/24 02:15:10;;;;;;;22.63;15.75;;;11.70;26.60;;;;;;7368883;19;20038;-68
2022/09/24 02:17:45;;;;;;;20.70;15.15;;;11.70;26.60;;;;;;7368642;19;20010;-68
2022/09/24 02:20:17;;;;;;;18.02;14.98;;;11.80;26.70;;;;;;7370570;19;20007;-68
2022/09/24 02:22:48;;;;;;;19.90;15.57;;;11.80;26.80;;;;;;7370947;19;20543;-68
2022/09/24 02:25:22;;;;;;;21.42;16.95;;;11.80;26.70;;;;;;7390765;19;20029;-68
2022/09/24 02:27:52;;;;;;;21.08;16.63;;;11.80;26.70;;;;;;7368272;19;20006;-68
2022/09/24 02:30:22;;;;;;;19.92;15.32;;;11.80;26.70;;;;;;7370098;19;20009;-68
2022/09/24 02:32:57;;;;;;;19.15;15.73;;;11.80;27.20;;;;;;7370791;19;20078;-68
2022/09/24 02:35:24;;;;;;;19.58;14.90;;;11.80;26.70;;;;;;7368887;19;20020;-68
2022/09/24 02:37:54;;;;;;;21.30;14.80;;;11.80;26.70;;;;;;7367719;19;20011;-69
2022/09/24 02:40:24;;;;;;;18.20;15.32;;;11.80;26.70;;;;;;7390252;19;20039;-69
2022/09/24 02:42:54;;;;;;;19.13;14.52;;;11.80;26.70;;;;;;7369468;19;20014;-69
2022/09/24 02:45:24;;;;;;;19.50;15.27;;;11.80;26.80;;;;;;7368394;19;20010;-68
2022/09/24 02:47:56;;;;;;;20.85;14.85;;;11.80;27.00;;;;;;7369178;19;20061;-68
2022/09/24 02:50:26;;;;;;;16.25;14.07;;;11.80;26.90;;;;;;7369544;19;20018;-68
2022/09/24 02:52:56;;;;;;;21.98;14.55;;;11.80;26.80;;;;;;7367834;19;20022;-68
2022/09/24 02:55:26;;;;;;;17.55;14.07;;;11.80;26.70;;;;;;7390101;19;20010;-69
2022/09/24 02:57:55;;;;;;;17.25;13.70;;;11.80;27.00;;;;;;7367390;19;20042;-68
2022/09/24 03:00:25;;;;;;;19.45;15.50;;;11.70;26.90;;;;;;7368749;19;20019;-69
2022/09/24 03:02:58;;;;;;;19.95;15.02;;;11.70;28.10;;;;;;7370293;19;20022;-69
2022/09/24 03:05:27;;;;;;;20.58;14.95;;;11.80;28.10;;;;;;7366704;19;20398;-69
2022/09/24 03:07:57;;;;;;;17.13;13.98;;;11.80;27.70;;;;;;7368216;19;20010;-69
2022/09/24 03:10:27;;;;;;;18.52;14.32;;;11.80;27.80;;;;;;7389598;19;20011;-68
2022/09/24 03:12:58;;;;;;;18.70;14.40;;;11.80;27.50;;;;;;7369748;19;20011;-68
2022/09/24 03:15:28;;;;;;;21.17;14.95;;;11.70;27.70;;;;;;7366532;19;20430;-68
2022/09/24 03:18:00;;;;;;;21.92;17.27;;;11.70;28.10;;;;;;7367519;19;20085;-68
2022/09/24 03:20:31;;;;;;;25.45;16.98;;;11.70;28.50;;;;;;7366728;19;20010;-68
2022/09/24 03:23:00;;;;;;;25.33;16.50;;;11.70;28.10;;;;;;7369389;19;20018;-68
2022/09/24 03:25:30;;;;;;;21.13;15.35;;;11.70;28.00;;;;;;7387104;19;20046;-68
2022/09/24 03:28:00;;;;;;;20.20;15.32;;;11.70;27.90;;;;;;7366006;19;20494;-69
2022/09/24 03:33:14;;;;;;;15.90;14.20;;;11.70;27.60;;;;;;7369194;19;20018;-68
2022/09/24 03:35:44;;;;;;;18.10;14.13;;;11.70;28.50;;;;;;7365196;19;20482;-69
2022/09/24 03:38:14;;;;;;;18.60;14.10;;;11.60;28.10;;;;;;7367620;19;20018;-68
2022/09/24 03:40:44;;;;;;;19.88;14.40;;;11.70;27.60;;;;;;7366441;19;20011;-68
2022/09/24 03:43:13;;;;;;;20.17;14.35;;;11.70;27.00;;;;;;7390663;19;20014;-68
2022/09/24 03:45:43;;;;;;;19.52;13.35;;;11.60;27.40;;;;;;7366184;19;20042;-68
2022/09/24 03:48:16;;;;;;;18.55;14.38;;;11.60;27.50;;;;;;7365837;19;20018;-68
2022/09/24 03:50:46;;;;;;;18.58;14.60;;;11.70;27.70;;;;;;7366301;19;20022;-68
2022/09/24 03:53:16;;;;;;;17.40;14.30;;;11.60;28.00;;;;;;7368604;19;20086;-68
2022/09/24 03:55:48;;;;;;;20.33;13.98;;;11.60;28.00;;;;;;7368260;19;20014;-69
2022/09/24 03:58:18;;;;;;;18.52;13.90;;;11.60;28.30;;;;;;7397180;19;20026;-68
2022/09/24 04:00:48;;;;;;;18.95;14.57;;;11.50;28.30;;;;;;7372626;19;20011;-68
2022/09/24 04:03:20;;;;;;;18.05;13.95;;;11.50;28.70;;;;;;7374874;19;20010;-68
2022/09/24 04:05:50;;;;;;;18.65;12.98;;;11.50;28.80;;;;;;7372194;19;20018;-68
2022/09/24 04:08:20;;;;;;;14.65;12.27;;;11.50;28.90;;;;;;7375093;19;20010;-68
2022/09/24 04:10:51;;;;;;;15.10;11.85;;;11.40;29.10;;;;;;7374486;19;20033;-68
2022/09/24 04:13:21;;;;;;;16.23;12.20;;;11.40;29.50;;;;;;7397700;19;20017;-69
2022/09/24 04:15:51;;;;;;;13.45;11.13;;;11.40;28.80;;;;;;7371808;19;20041;-68
2022/09/24 04:18:24;;;;;;;16.50;11.82;;;11.40;28.90;;;;;;7373899;19;20023;-69
2022/09/24 04:20:58;;;;;;;13.88;11.40;;;11.50;28.20;;;;;;7373463;19;20022;-68
2022/09/24 04:23:30;;;;;;;13.32;10.32;;;11.50;27.60;;;;;;7375746;19;20014;-68
2022/09/24 04:26:01;;;;;;;14.52;12.10;;;11.50;27.80;;;;;;7371417;19;20098;-68
2022/09/24 04:28:31;;;;;;;17.15;12.10;;;11.50;27.80;;;;;;7395127;19;20010;-69
2022/09/24 04:31:01;;;;;;;16.48;11.00;;;11.50;27.30;;;;;;7374309;19;20010;-69
2022/09/24 04:33:33;;;;;;;13.43;11.43;;;11.50;26.60;;;;;;7374629;19;20035;-68
2022/09/24 04:36:03;;;;;;;16.90;11.00;;;11.50;26.50;;;;;;7371336;19;20486;-68
2022/09/24 04:38:33;;;;;;;13.57;11.40;;;11.50;27.50;;;;;;7373870;19;20486;-68
2022/09/24 04:41:07;;;;;;;13.13;11.38;;;11.50;27.20;;;;;;7372032;19;20007;-68
2022/09/24 04:43:37;;;;;;;13.80;11.57;;;11.50;27.30;;;;;;7395163;19;20014;-71
2022/09/24 04:46:08;;;;;;;17.13;12.43;;;11.40;27.30;;;;;;7392393;19;20014;-68
2022/09/24 04:48:41;;;;;;;16.10;13.43;;;11.40;27.50;;;;;;7372397;19;20010;-68
2022/09/24 04:51:11;;;;;;;15.55;12.80;;;11.40;28.00;;;;;;7373325;19;20011;-68
2022/09/24 04:53:41;;;;;;;17.02;13.13;;;11.50;28.30;;;;;;7373575;19;20397;-69
2022/09/24 04:56:10;;;;;;;13.48;11.55;;;11.40;27.80;;;;;;7371580;19;20014;-68
2022/09/24 04:58:40;;;;;;;15.85;12.07;;;11.40;27.50;;;;;;7372648;19;20021;-68
2022/09/24 05:01:12;;;;;;;13.68;11.90;;;11.50;27.60;;;;;;7392999;19;20018;-68
2022/09/24 05:03:46;;;;;;;16.30;12.40;;;11.40;27.90;;;;;;7372652;19;20018;-69
2022/09/24 05:06:16;;;;;;;;;;;11.40;28.00;;;;;;7371285;19;20019;-68
2022/09/24 05:08:46;;;;;;;14.50;11.52;;;11.50;27.50;;;;;;7372740;19;19939;-68
2022/09/24 05:11:18;;;;;;;17.02;11.18;;;11.50;27.90;;;;;;7372715;19;20030;-68
2022/09/24 05:13:48;;;;;;;17.23;12.85;;;11.50;27.90;;;;;;7373458;19;20481;-68
2022/09/24 05:16:17;;;;;;;14.70;12.57;;;11.50;28.00;;;;;;7392692;19;20090;-69
2022/09/24 05:18:50;;;;;;;14.25;11.63;;;11.50;27.90;;;;;;7372433;19;20011;-68
2022/09/24 05:21:20;;;;;;;22.92;13.80;;;11.50;27.60;;;;;;7372466;19;20703;-68
2022/09/24 05:23:50;;;;;;;16.05;12.40;;;11.50;27.80;;;;;;7373414;19;20011;-68
2022/09/24 05:29:02;;;;;;;15.10;12.23;;;11.50;26.70;;;;;;7373818;19;20026;-68
2022/09/24 05:31:32;;;;;;;19.30;12.80;;;11.50;27.30;;;;;;7394403;19;20384;-68
2022/09/24 05:34:04;;;;;;;20.63;13.73;;;11.60;27.30;;;;;;7370703;19;20007;-69
2022/09/24 05:36:34;;;;;;;16.88;13.85;;;11.60;26.70;;;;;;7368431;19;20126;-68
2022/09/24 05:39:04;;;;;;;17.55;14.02;;;11.60;26.60;;;;;;7371900;19;20383;-68
2022/09/24 05:41:34;;;;;;;16.58;13.25;;;11.60;26.60;;;;;;7369538;19;20018;-68
2022/09/24 05:44:05;;;;;;;18.88;13.50;;;11.60;26.70;;;;;;7370948;19;20052;-69
2022/09/24 05:46:35;;;;;;;18.20;13.85;;;11.60;26.80;;;;;;7391385;19;20014;-69
2022/09/24 05:49:07;;;;;;;18.65;14.30;;;11.60;26.90;;;;;;7372431;19;20365;-69
2022/09/24 05:51:37;;;;;;;20.40;13.48;;;11.60;26.60;;;;;;7370900;19;20082;-68
2022/09/24 05:54:07;;;;;;;18.77;12.95;;;11.70;26.70;;;;;;7370796;19;20446;-68
2022/09/24 05:56:37;;;;;;;15.05;12.48;;;11.70;26.70;;;;;;7369134;19;20010;-68
2022/09/24 05:59:07;;;;;;;17.58;13.05;;;11.80;26.70;;;;;;7372034;19;20049;-69
2022/09/24 06:01:37;;;;;;;16.35;12.80;;;11.80;26.60;;;;;;7390737;19;20023;-68
2022/09/24 06:04:09;;;;;;;17.80;13.02;;;11.90;25.60;;;;;;7370938;19;20010;-68
2022/09/24 06:06:39;;;;;;;14.40;12.18;;;11.90;25.70;;;;;;7368174;19;20014;-69
2022/09/24 06:09:09;;;;;;;15.52;12.55;;;12.00;25.90;;;;;;7371611;19;20098;-69
2022/09/24 06:11:39;;;;;;;15.65;12.43;;;12.00;24.90;;;;;;7370935;19;20016;-69
2022/09/24 06:14:10;;;;;;;14.98;11.70;;;12.00;24.10;;;;;;7370371;19;20019;-68
2022/09/24 06:16:40;;;;;;;15.10;11.80;;;12.00;23.40;;;;;;7375258;19;20034;-69
2022/09/24 06:19:12;;;;;;;17.10;12.73;;;12.00;24.20;;;;;;7391423;19;20019;-69
2022/09/24 06:21:42;;;;;;;14.70;12.65;;;12.00;23.50;;;;;;7368535;19;20386;-68
2022/09/24 06:24:12;;;;;;;20.70;13.20;;;12.10;23.40;;;;;;7369740;19;20022;-69
2022/09/24 06:26:42;;;;;;;15.23;12.90;;;12.00;23.40;;;;;;7367397;19;20014;-68
2022/09/24 06:29:12;;;;;;;16.92;12.85;;;12.10;23.80;;;;;;7369820;19;20034;-68
2022/09/24 06:31:41;;;;;;;18.60;11.70;;;12.20;23.50;;;;;;7370246;19;20098;-69
2022/09/24 06:34:14;;;;;;;15.55;12.27;;;12.30;23.60;;;;;;7391454;19;20025;-69
2022/09/24 06:36:44;;;;;;;16.02;12.50;;;12.30;23.10;;;;;;7366764;19;20353;-68
2022/09/24 06:39:13;;;;;;;17.48;12.60;;;12.40;22.00;;;;;;7369757;19;20025;-68
2022/09/24 06:41:43;;;;;;;12.98;11.52;;;12.40;20.80;;;;;;7369791;19;20022;-68
2022/09/24 06:44:13;;;;;;;15.63;11.98;;;12.50;21.30;;;;;;7369295;19;20010;-69
2022/09/24 06:46:44;;;;;;;15.85;12.50;;;12.50;20.70;;;;;;7366762;19;20014;-68
2022/09/24 06:49:16;;;;;;;14.85;12.25;;;12.50;20.50;;;;;;7391383;19;20038;-68
2022/09/24 06:51:46;;;;;;;17.02;11.90;;;12.50;20.60;;;;;;7369520;19;20114;-68
2022/09/24 06:54:16;;;;;;;17.98;13.90;;;12.60;19.50;;;;;;7368178;19;20015;-68
2022/09/24 06:56:46;;;;;;;15.75;13.00;;;12.60;19.00;;;;;;7366826;19;20136;-68
2022/09/24 06:59:16;;;;;;;14.68;12.52;;;12.80;18.70;;;;;;7369559;19;20010;-68
2022/09/24 07:01:45;;;;;;;14.65;12.88;;;12.80;18.00;;;;;;7368191;19;20789;-68
2022/09/24 07:04:18;;;;;;;15.27;12.18;;;13.00;16.20;;;;;;7389583;19;20027;-69
2022/09/24 07:09:30;;;;;;;13.90;12.05;;;12.90;17.00;;;;;;7368670;19;20094;-68
2022/09/24 07:12:04;;;;;;;17.20;12.27;;;13.10;16.60;;;;;;7369800;19;20102;-68
2022/09/24 07:14:33;;;;;;;17.37;12.00;;;13.10;15.20;;;;;;7367859;19;20045;-68
2022/09/24 07:17:03;;;;;;;47.22;34.88;;;13.20;17.20;;;;;;7365907;19;20254;-68
2022/09/24 07:19:37;;;;;;;16.10;12.35;;;13.30;15.00;;;;;;7390339;19;20076;-68
2022/09/24 07:22:07;;;;;;;14.63;12.38;;;13.30;14.50;;;;;;7367809;19;20011;-68
2022/09/24 07:24:37;;;;;;;14.75;11.90;;;13.40;13.40;;;;;;7366251;19;20089;-68
2022/09/24 07:27:07;;;;;;;14.75;11.65;;;13.50;13.10;;;;;;7365860;19;20006;-67
2022/09/24 07:29:37;;;;;;;14.50;11.73;;;13.40;11.10;;;;;;7365996;19;20042;-68
2022/09/24 07:32:08;;;;;;;14.88;12.30;;;13.30;13.00;;;;;;7367355;19;20486;-68
2022/09/24 07:34:41;;;;;;;15.63;12.82;;;13.50;13.90;;;;;;7387712;19;20077;-68
2022/09/24 07:37:11;;;;;;;15.15;12.35;;;13.60;12.70;;;;;;7366112;19;20006;-68
2022/09/24 07:39:42;;;;;;;14.27;11.77;;;13.60;11.30;;;;;;7366668;19;20378;-68
2022/09/24 07:42:11;;;;;;;13.85;12.15;;;13.60;11.80;;;;;;7367206;19;20011;-68
2022/09/24 07:44:41;;;;;;;16.30;12.27;;;13.60;10.90;;;;;;7365768;19;20445;-67
2022/09/24 07:47:11;;;;;;;16.02;12.57;;;13.60;10.20;;;;;;7366248;19;20014;-68
2022/09/24 07:49:47;;;;;;;17.58;12.52;;;13.60;11.20;;;;;;7367295;19;20010;-68
2022/09/24 07:52:17;;;;;;;13.80;11.70;;;13.60;11.00;;;;;;7389333;19;20047;-68
2022/09/24 07:54:47;;;;;;;14.55;11.80;;;13.50;10.90;;;;;;7365656;19;20015;-69
2022/09/24 07:57:17;;;;;;;16.25;11.95;;;13.60;11.00;;;;;;7365191;19;20014;-68
2022/09/24 07:59:47;;;;;;;16.33;12.00;;;13.50;11.30;;;;;;7366737;19;20010;-68
2022/09/24 08:02:19;;;;;;;13.35;11.70;;;13.80;10.40;;;;;;7367164;19;20066;-69
2022/09/24 08:04:51;;;;;;;15.93;12.70;;;13.80;10.60;;;;;;7365261;19;20017;-69
2022/09/24 08:07:21;;;;;;;14.50;12.02;;;13.90;9.20;;;;;;7386645;19;20046;-68
2022/09/24 08:09:50;;;;;;;17.92;12.32;;;13.80;8.00;;;;;;7366875;19;20017;-68
2022/09/24 08:12:20;;;;;;;15.57;11.75;;;13.90;9.10;;;;;;7367557;19;20018;-69
2022/09/24 08:14:50;;;;;;;17.40;11.13;;;13.80;9.30;;;;;;7365340;19;20131;-68
2022/09/24 08:17:20;;;;;;;15.75;12.90;;;13.70;10.30;;;;;;7364581;19;20023;-68
2022/09/24 08:19:55;;;;;;;14.27;11.15;;;13.90;9.10;;;;;;7366845;19;20483;-68
2022/09/24 08:22:25;;;;;;;16.13;12.43;;;14.00;9.00;;;;;;7387656;19;20085;-68
2022/09/24 08:24:56;;;;;;;14.60;12.30;;;14.20;8.30;;;;;;7364731;19;20053;-67
2022/09/24 08:27:26;;;;;;;12.95;11.48;;;14.20;5.50;;;;;;7363560;19;20006;-67
2022/09/24 08:29:56;;;;;;;14.40;11.27;;;14.30;6.70;;;;;;7365090;19;20657;-68
2022/09/24 08:32:26;;;;;;;13.40;11.07;;;14.40;4.50;;;;;;7367409;19;20006;-68
2022/09/24 08:34:58;;;;;;;14.60;11.23;;;14.60;4.30;;;;;;7365494;19;20624;-69
2022/09/24 08:37:30;;;;;;;12.20;10.38;;;14.60;2.90;;;;;;7385624;19;20006;-69
2022/09/24 08:40:00;;;;;;;15.15;10.52;;;14.50;2.50;;;;;;7365351;19;20389;-69
2022/09/24 08:42:37;;;;;;;20.35;10.73;;;14.60;1.00;;;;;;7368278;19;20014;-69
2022/09/24 08:47:55;;;;;;;12.52;10.40;;;14.70;1.00;;;;;;7370955;19;20548;-69
2022/09/24 08:50:30;;;;;;;11.40;10.25;;;14.90;1.00;;;;;;7373057;19;20003;-69
2022/09/24 08:53:08;;;;;;;11.93;9.88;;;15.10;1.00;;;;;;7372512;19;20024;-69
2022/09/24 08:55:42;;;;;;;12.50;9.95;;;15.20;1.00;;;;;;7393987;19;20579;-68
2022/09/24 08:58:33;;;;;;;12.15;9.93;;;15.10;1.00;;;;;;7372484;19;20007;-69
2022/09/24 09:01:16;;;;;;;11.63;9.55;;;15.40;1.00;;;;;;7372692;19;20010;-69
2022/09/24 09:03:50;;;;;;;11.50;9.70;;;15.50;1.00;;;;;;7370621;19;20482;-69
2022/09/24 09:06:43;;;;;;;11.43;9.65;;;15.60;1.00;;;;;;7371103;19;20018;-69
2022/09/24 09:09:16;;;;;;;14.30;9.93;;;15.90;1.00;;;;;;7372387;19;20014;-68
2022/09/24 09:11:51;;;;;;;14.07;10.10;;;16.10;1.00;;;;;;7372813;19;20029;-68
2022/09/24 09:14:26;;;;;;;13.68;9.57;;;16.00;1.00;;;;;;7371213;19;20256;-69
2022/09/24 09:17:04;;;;;;;12.20;9.40;;;16.30;1.00;;;;;;7369022;19;20004;-68
2022/09/24 09:19:35;;;;;;;;;;;16.70;1.00;;;;;;7394101;19;20094;-68
2022/09/24 09:22:14;;;;;;;10.57;8.95;;;17.00;1.00;;;;;;7372186;19;19925;-68
2022/09/24 09:24:48;;;;;;;11.25;9.75;;;16.40;1.00;;;;;;7368101;19;20447;-67
2022/09/24 09:27:19;;;;;;;;;;;16.70;1.00;;;;;;7368869;19;20013;-68
2022/09/24 09:29:52;;;;;;;9.32;8.32;;;16.60;1.00;;;;;;7371660;19;19954;-68
2022/09/24 09:32:35;;;;;;;10.07;8.05;;;16.50;1.00;;;;;;7371752;19;20059;-69
2022/09/24 09:35:13;;;;;;;14.30;8.15;;;16.90;1.00;;;;;;7369707;19;20706;-69
2022/09/24 09:37:53;;;;;;;9.02;7.68;;;17.00;1.00;;;;;;7367588;19;20098;-69
2022/09/24 09:40:33;;;;;;;11.45;8.55;;;16.90;1.00;;;;;;7393392;19;20498;-69
2022/09/24 09:43:05;;;;;;;9.63;7.20;;;17.50;1.00;;;;;;7370707;19;20014;-68
2022/09/24 09:45:41;;;;;;;8.68;7.78;;;17.10;1.00;;;;;;7369717;19;20383;-68
2022/09/24 09:48:15;;;;;;;10.55;8.07;;;17.30;1.00;;;;;;7371256;19;20537;-68
2022/09/24 09:50:48;;;;;;;11.07;8.35;;;17.60;1.00;;;;;;7370045;19;20007;-68
2022/09/24 09:53:25;;;;;;;11.95;7.78;;;17.70;1.00;;;;;;7369720;19;20378;-68
2022/09/24 09:55:57;;;;;;;9.63;8.00;;;17.60;1.00;;;;;;7369322;19;20443;-68
2022/09/24 09:58:29;;;;;;;9.02;7.68;;;17.40;1.00;;;;;;7391635;19;20021;-68
2022/09/24 10:01:08;;;;;;;11.43;7.68;;;17.10;1.00;;;;;;7370193;19;20021;-69
2022/09/24 10:03:49;;;;;;;9.90;8.18;;;17.10;1.00;;;;;;7367940;19;20033;-69
2022/09/24 10:06:27;;;;;;;9.20;8.05;;;17.00;1.00;;;;;;7369525;19;20011;-68
2022/09/24 10:09:09;;;;;;;11.75;8.43;;;17.20;1.00;;;;;;7369811;19;20021;-69
2022/09/24 10:11:39;;;;;;;14.57;8.52;;;17.00;1.00;;;;;;7370084;19;20007;-69
2022/09/24 10:14:13;;;;;;;11.57;9.57;;;17.10;1.00;;;;;;7369500;19;20014;-68
2022/09/24 10:16:46;;;;;;;12.25;10.57;;;16.90;1.00;;;;;;7368014;19;20518;-68
2022/09/24 10:19:20;;;;;;;13.73;10.85;;;16.90;1.00;;;;;;7391549;19;20017;-69
2022/09/24 10:21:51;;;;;;;14.57;9.80;;;16.90;1.00;;;;;;7368488;19;20015;-69
2022/09/24 10:24:26;;;;;;;11.35;9.68;;;16.90;1.00;;;;;;7366891;19;20033;-68
2022/09/24 10:26:56;;;;;;;12.77;10.57;;;16.70;1.00;;;;;;7368007;19;20014;-69
2022/09/24 10:32:18;;;;;;;11.88;10.05;;;16.60;1.00;;;;;;7370423;19;20006;-69
2022/09/24 10:34:58;;;;;;;14.38;11.25;;;16.40;1.00;;;;;;7364296;19;20021;-69
2022/09/24 10:37:29;;;;;;;12.73;10.90;;;16.50;1.00;;;;;;7384986;19;20439;-69
2022/09/24 10:40:03;;;;;;;11.73;10.40;;;16.50;1.00;;;;;;7364553;19;20075;-69
2022/09/24 10:42:32;;;;;;;12.75;10.50;;;16.50;1.00;;;;;;7365759;19;20010;-68
2022/09/24 10:45:04;;;;;;;12.70;10.32;;;16.60;1.00;;;;;;7364050;19;20018;-67
2022/09/24 10:47:42;;;;;;;11.65;10.43;;;16.50;1.00;;;;;;7363175;19;20557;-67
2022/09/24 10:50:27;;;;;;;15.10;11.07;;;16.50;1.00;;;;;;7368077;19;20397;-68
2022/09/24 10:52:59;;;;;;;;;;;16.50;1.00;;;;;;7370031;19;20038;-68
2022/09/24 10:55:44;;;;;;;17.25;11.27;;;16.30;1.00;;;;;;7387242;19;19926;-69
2022/09/24 10:58:31;;;;;;;14.25;11.13;;;16.40;1.00;;;;;;7368978;19;20014;-70
2022/09/24 11:01:13;;;;;;;14.20;10.50;;;16.40;1.00;;;;;;7368096;19;20017;-68
2022/09/24 11:03:55;;;;;;;16.20;11.80;;;16.50;1.00;;;;;;7366096;19;20693;-67
2022/09/24 11:06:40;;;;;;;16.65;11.55;;;16.70;1.00;;;;;;7365828;19;20006;-68
2022/09/24 11:09:24;;;;;;;13.90;10.32;;;16.90;1.00;;;;;;7368444;19;20025;-67
2022/09/24 11:12:06;;;;;;;14.00;11.02;;;17.00;1.00;;;;;;7369618;19;20015;-68
2022/09/24 11:14:48;;;;;;;11.80;10.60;;;17.20;1.00;;;;;;7367250;19;20502;-69
2022/09/24 11:17:36;;;;;;;12.73;9.98;;;17.40;1.00;;;;;;7366465;19;20525;-69
2022/09/24 11:20:29;;;;;;;10.63;9.52;;;17.10;1.00;;;;;;7367643;19;20014;-68
2022/09/24 11:23:32;;;;;;;14.80;9.38;;;17.20;1.00;;;;;;7368287;19;20043;-68
2022/09/24 11:26:12;;;;;;;10.90;9.40;;;17.10;1.00;;;;;;7367147;19;20003;-70
2022/09/24 11:29:12;;;;;;;12.15;9.38;;;17.20;1.00;;;;;;7371854;19;20018;-69
2022/09/24 11:31:47;;;;;;;10.38;9.10;;;17.40;1.00;;;;;;7370133;19;20407;-69
2022/09/24 11:34:35;;;;;;;10.73;9.45;;;17.50;1.00;;;;;;7388788;19;20355;-68
2022/09/24 11:37:21;;;;;;;6.47;5.60;;;17.80;1.00;;;;;;7365804;19;20026;-69
2022/09/24 11:40:04;;;;;;;11.35;6.45;;;17.40;1.00;;;;;;7367187;19;20015;-69
2022/09/24 11:42:39;;;;;;;7.07;6.03;;;17.20;1.00;;;;;;7368332;19;20062;-69
2022/09/24 11:45:46;;;;;;;9.23;6.07;;;17.30;1.00;;;;;;7365834;19;20090;-68
2022/09/24 11:48:36;;;;;;;8.52;4.97;;;17.30;1.00;;;;;;7366779;19;20006;-68
2022/09/24 11:51:19;;;;;;;7.82;4.63;;;17.20;1.00;;;;;;7367235;19;20031;-67
2022/09/24 11:53:55;;;;;;;5.13;4.38;;;17.10;1.00;;;;;;7365032;19;20037;-69
2022/09/24 11:56:31;;;;;;;6.05;4.43;;;17.30;1.00;;;;;;7364929;19;20017;-68
2022/09/24 11:59:11;;;;;;;9.30;4.85;;;17.20;1.00;;;;;;7367735;19;20048;-69
2022/09/24 12:01:51;;;;;;;6.13;4.43;;;17.00;1.00;;;;;;7378751;19;20037;-69
2022/09/24 12:04:26;;;;;;;5.68;3.88;;;17.00;1.00;;;;;;7387132;19;20018;-69
2022/09/24 12:07:02;;;;;;;4.78;3.83;;;17.10;1.00;;;;;;7365259;19;20018;-69
2022/09/24 12:09:37;;;;;;;6.72;4.00;;;17.00;1.00;;;;;;7366360;19;20015;-69
2022/09/24 12:12:14;;;;;;;5.50;4.18;;;16.90;1.30;;;;;;7367445;19;20018;-69
2022/09/24 12:14:49;;;;;;;4.25;3.83;;;16.90;2.50;;;;;;7362700;19;20014;-68
2022/09/24 12:17:29;;;;;;;7.45;5.18;;;16.80;1.90;;;;;;7366875;19;20010;-69
2022/09/24 12:20:02;;;;;;;6.53;3.88;;;16.50;4.10;;;;;;7373414;19;20018;-68
2022/09/24 12:22:34;;;;;;;4.93;3.65;;;16.50;5.10;;;;;;7396454;19;20002;-69
2022/09/24 12:25:07;;;;;;;5.15;3.70;;;16.40;4.70;;;;;;7369818;19;20018;-67
2022/09/24 12:27:38;;;;;;;5.18;4.10;;;16.30;4.50;;;;;;7370695;19;20010;-68
2022/09/24 12:33:18;;;;;;;5.85;4.38;;;16.20;9.60;;;;;;7374867;19;20122;-68
2022/09/24 12:36:00;;;;;;;7.72;6.20;;;16.10;12.00;;;;;;7372282;19;20430;-69
2022/09/24 12:38:35;;;;;;;11.25;8.25;;;15.90;12.40;;;;;;7373765;19;20062;-68
2022/09/24 12:41:29;;;;;;;12.00;10.80;;;15.80;15.70;;;;;;7372959;19;20478;-68
2022/09/24 12:44:04;;;;;;;14.02;12.57;;;15.60;18.90;;;;;;7372243;19;20139;-68
2022/09/24 12:46:41;;;;;;;16.95;13.18;;;15.50;23.60;;;;;;7392963;19;20018;-68
2022/09/24 12:49:30;;;;;;;20.23;13.30;;;15.50;28.10;;;;;;7373396;19;20065;-68
2022/09/24 12:52:03;;;;;;;17.98;15.13;;;15.30;26.20;;;;;;7371937;19;20022;-68
2022/09/24 12:54:35;;;;;;;20.75;16.95;;;15.10;29.00;;;;;;7371096;19;20496;-69
2022/09/24 12:57:10;;;;;;;19.88;15.82;;;15.00;31.60;;;;;;7370269;19;20019;-68
2022/09/24 12:59:51;;;;;;;20.70;16.75;;;15.00;33.40;;;;;;7372351;19;20373;-69
2022/09/24 13:02:23;;;;;;;20.40;17.98;;;14.90;37.10;;;;;;7373376;19;20470;-68
2022/09/24 13:05:18;;;;;;;31.05;17.33;;;14.90;39.10;;;;;;7370497;19;20475;-69
2022/09/24 13:08:02;;;;;;;22.10;16.92;;;14.80;40.30;;;;;;7369979;19;20374;-68
2022/09/24 13:10:34;;;;;;;23.73;18.42;;;14.70;39.70;;;;;;7392764;19;20009;-69
2022/09/24 13:13:17;;;;;;;23.02;18.75;;;14.70;43.00;;;;;;7372264;19;20013;-69
2022/09/24 13:15:48;;;;;;;25.08;19.65;;;14.80;44.30;;;;;;7370673;19;20018;-68
2022/09/24 13:18:23;;;;;;;28.27;21.73;;;14.90;45.60;;;;;;7372714;19;20010;-69
2022/09/24 13:21:05;;;;;;;25.42;19.75;;;14.80;45.50;;;;;;7371763;19;20120;-67
2022/09/24 13:23:50;;;;;;;25.15;19.33;;;14.90;45.60;;;;;;7369864;19;20014;-68
2022/09/24 13:26:32;;;;;;;28.30;20.65;;;14.90;45.50;;;;;;7368392;19;20034;-68